createdAt,value
2023-05-09T00:01:47.434Z,5.96
2023-05-09T00:04:16.750Z,5.94
2023-05-09T00:06:46.092Z,5.94
2023-05-09T00:09:15.311Z,5.95
2023-05-09T00:11:44.526Z,5.91
2023-05-09T00:14:14.008Z,5.88
2023-05-09T00:16:43.104Z,5.84
2023-05-09T00:19:13.182Z,5.78
2023-05-09T00:21:42.282Z,5.74
2023-05-09T00:24:11.375Z,5.69
2023-05-09T00:26:40.573Z,5.68
2023-05-09T00:29:09.653Z,5.63
2023-05-09T00:31:38.727Z,5.60
2023-05-09T00:34:07.864Z,5.58
2023-05-09T00:36:37.185Z,5.51
2023-05-09T00:39:06.307Z,5.49
2023-05-09T00:41:35.835Z,5.48
2023-05-09T00:44:05.073Z,5.50
2023-05-09T00:46:34.222Z,5.48
2023-05-09T00:49:03.765Z,5.45
2023-05-09T00:51:33.254Z,5.42
2023-05-09T00:54:02.697Z,5.43
2023-05-09T00:56:31.889Z,5.40
2023-05-09T00:59:01.172Z,5.39
2023-05-09T01:01:30.878Z,5.38
2023-05-09T01:04:00.202Z,5.33
2023-05-09T01:06:38.068Z,5.36
2023-05-09T01:09:26.822Z,5.27
2023-05-09T01:12:08.060Z,5.23
2023-05-09T01:14:59.935Z,5.22
2023-05-09T01:17:40.294Z,5.17
2023-05-09T01:20:24.582Z,5.12
2023-05-09T01:23:15.995Z,5.00
2023-05-09T01:26:04.500Z,4.92
2023-05-09T01:29:10.660Z,4.89
2023-05-09T01:31:42.166Z,4.88
2023-05-09T01:34:15.042Z,4.90
2023-05-09T01:36:44.425Z,4.89
2023-05-09T01:39:14.026Z,4.82
2023-05-09T01:41:43.154Z,4.80
2023-05-09T01:44:15.095Z,4.78
2023-05-09T01:46:44.989Z,4.74
2023-05-09T01:49:14.520Z,4.67
2023-05-09T01:51:45.236Z,4.63
2023-05-09T01:54:16.897Z,4.59
2023-05-09T01:56:47.139Z,4.59
2023-05-09T01:59:18.508Z,4.50
2023-05-09T02:01:48.919Z,4.44
2023-05-09T02:04:18.925Z,4.48
2023-05-09T02:06:51.455Z,4.42
2023-05-09T02:09:21.138Z,4.43
2023-05-09T02:11:50.457Z,4.38
2023-05-09T02:14:19.574Z,4.34
2023-05-09T02:16:48.648Z,4.35
2023-05-09T02:19:17.695Z,4.33
2023-05-09T02:21:46.854Z,4.32
2023-05-09T02:24:16.086Z,4.31
2023-05-09T02:26:45.621Z,4.25
2023-05-09T02:29:18.620Z,4.22
2023-05-09T02:31:50.144Z,4.18
2023-05-09T02:34:20.178Z,4.22
2023-05-09T02:36:49.550Z,4.22
2023-05-09T02:39:18.652Z,4.18
2023-05-09T02:41:50.662Z,4.24
2023-05-09T02:44:21.040Z,4.24
2023-05-09T02:46:50.472Z,4.19
2023-05-09T02:49:31.475Z,4.11
2023-05-09T02:52:02.356Z,4.14
2023-05-09T02:54:31.480Z,4.17
2023-05-09T02:57:00.646Z,4.24
2023-05-09T02:59:30.862Z,4.27
2023-05-09T03:02:03.593Z,4.27
2023-05-09T03:04:33.739Z,4.20
2023-05-09T03:07:03.634Z,4.13
2023-05-09T03:09:35.543Z,4.10
2023-05-09T03:12:05.003Z,4.10
2023-05-09T03:14:34.188Z,4.10
2023-05-09T03:17:04.479Z,4.09
2023-05-09T03:19:37.209Z,4.10
2023-05-09T03:22:07.323Z,4.04
2023-05-09T03:24:41.372Z,4.02
2023-05-09T03:27:10.461Z,4.04
2023-05-09T03:29:39.518Z,4.00
2023-05-09T03:32:08.570Z,3.98
2023-05-09T03:34:37.799Z,3.99
2023-05-09T03:37:07.450Z,4.08
2023-05-09T03:39:40.770Z,4.18
2023-05-09T03:42:09.983Z,4.25
2023-05-09T03:44:39.107Z,4.29
2023-05-09T03:47:08.174Z,4.36
2023-05-09T03:49:41.615Z,4.34
2023-05-09T03:52:12.354Z,4.42
2023-05-09T03:54:41.512Z,4.45
2023-05-09T03:57:10.675Z,4.50
2023-05-09T03:59:40.673Z,4.58
2023-05-09T04:02:11.136Z,4.66
2023-05-09T04:04:40.514Z,4.71
2023-05-09T04:07:10.732Z,4.80
2023-05-09T04:09:42.341Z,4.87
2023-05-09T04:12:11.498Z,5.00
2023-05-09T04:14:40.665Z,5.14
2023-05-09T04:17:10.228Z,5.25
2023-05-09T04:19:39.325Z,5.32
2023-05-09T04:22:08.326Z,5.41
2023-05-09T04:24:37.369Z,5.52
2023-05-09T04:27:06.500Z,5.60
2023-05-09T04:32:35.870Z,5.84
2023-05-09T04:35:06.590Z,5.97
2023-05-09T04:37:41.825Z,6.08
2023-05-09T04:40:11.852Z,6.20
2023-05-09T04:42:46.931Z,6.32
2023-05-09T04:45:16.430Z,6.40
2023-05-09T04:47:45.869Z,6.51
2023-05-09T04:50:16.609Z,6.62
2023-05-09T04:52:45.784Z,6.73
2023-05-09T04:55:15.297Z,6.87
2023-05-09T04:57:49.108Z,7.01
2023-05-09T05:00:19.410Z,7.11
2023-05-09T05:02:50.096Z,7.25
2023-05-09T05:05:25.021Z,7.35
2023-05-09T05:07:55.570Z,7.44
2023-05-09T05:10:30.415Z,7.57
2023-05-09T05:13:07.955Z,7.67
2023-05-09T05:15:41.248Z,7.78
2023-05-09T05:18:11.488Z,7.89
2023-05-09T05:20:42.098Z,8.03
2023-05-09T05:23:11.204Z,8.14
2023-05-09T05:25:40.548Z,8.22
2023-05-09T05:28:09.786Z,8.35
2023-05-09T05:30:43.182Z,8.47
2023-05-09T05:33:12.287Z,8.51
2023-05-09T05:35:41.433Z,8.64
2023-05-09T05:38:10.656Z,8.70
2023-05-09T05:40:40.273Z,8.84
2023-05-09T05:43:10.279Z,8.95
2023-05-09T05:45:41.076Z,9.07
2023-05-09T05:48:13.155Z,9.15
2023-05-09T05:50:42.259Z,9.25
2023-05-09T05:53:12.439Z,9.36
2023-05-09T05:55:41.766Z,9.44
2023-05-09T05:58:10.892Z,9.52
2023-05-09T06:00:40.262Z,9.64
2023-05-09T06:03:14.225Z,9.75
2023-05-09T06:05:49.136Z,9.92
2023-05-09T06:08:18.731Z,9.99
2023-05-09T06:10:47.809Z,10.07
2023-05-09T06:13:17.001Z,10.18
2023-05-09T06:15:50.916Z,10.27
2023-05-09T06:18:20.111Z,10.30
2023-05-09T06:20:49.295Z,10.45
2023-05-09T06:23:22.176Z,10.55
2023-05-09T06:25:51.270Z,10.65
2023-05-09T06:28:20.368Z,10.70
2023-05-09T06:30:49.526Z,10.83
2023-05-09T06:33:18.585Z,10.91
2023-05-09T06:35:48.548Z,11.03
2023-05-09T06:38:17.579Z,11.14
2023-05-09T06:40:46.727Z,11.26
2023-05-09T06:43:15.868Z,11.35
2023-05-09T06:45:45.012Z,11.51
2023-05-09T06:48:14.081Z,11.63
2023-05-09T06:50:43.130Z,11.76
2023-05-09T06:53:12.276Z,11.85
2023-05-09T06:55:41.938Z,11.97
2023-05-09T06:58:12.087Z,12.07
2023-05-09T07:00:41.288Z,12.20
2023-05-09T07:03:10.813Z,12.33
2023-05-09T07:05:39.885Z,12.44
2023-05-09T07:08:09.077Z,12.52
2023-05-09T07:10:38.869Z,12.58
2023-05-09T07:13:07.921Z,12.73
2023-05-09T07:15:41.118Z,12.81
2023-05-09T07:18:11.954Z,12.92
2023-05-09T07:20:41.296Z,13.04
2023-05-09T07:23:10.386Z,13.23
2023-05-09T07:25:39.431Z,13.30
2023-05-09T07:28:08.562Z,13.43
2023-05-09T07:30:37.645Z,13.52
2023-05-09T07:33:07.693Z,13.55
2023-05-09T07:35:36.902Z,13.65
2023-05-09T07:38:06.506Z,13.66
2023-05-09T07:40:37.212Z,13.81
2023-05-09T07:43:06.333Z,13.88
2023-05-09T07:45:35.463Z,14.01
2023-05-09T07:48:05.056Z,14.09
2023-05-09T07:50:34.152Z,14.18
2023-05-09T07:53:03.258Z,14.23
2023-05-09T07:55:32.323Z,14.28
2023-05-09T07:58:01.402Z,14.35
2023-05-09T08:00:30.471Z,14.43
2023-05-09T08:02:59.894Z,14.46
2023-05-09T08:05:29.199Z,14.51
2023-05-09T08:07:58.307Z,14.56
2023-05-09T08:10:30.666Z,14.65
2023-05-09T08:12:59.866Z,14.75
2023-05-09T08:15:28.998Z,14.89
2023-05-09T08:17:58.263Z,15.08
2023-05-09T08:20:27.409Z,15.28
2023-05-09T08:22:56.457Z,15.36
2023-05-09T08:25:25.488Z,15.43
2023-05-09T08:27:54.528Z,15.49
2023-05-09T08:30:23.554Z,15.45
2023-05-09T08:32:52.680Z,15.57
2023-05-09T08:35:21.888Z,15.63
2023-05-09T08:37:51.728Z,15.69
2023-05-09T08:40:21.120Z,15.78
2023-05-09T08:42:50.875Z,15.80
2023-05-09T08:45:25.978Z,15.74
2023-05-09T08:47:55.819Z,15.78
2023-05-09T08:50:25.284Z,15.92
2023-05-09T08:52:54.523Z,16.00
2023-05-09T08:55:25.395Z,16.11
2023-05-09T08:57:54.716Z,16.33
2023-05-09T09:00:25.448Z,16.60
2023-05-09T09:02:57.108Z,16.92
2023-05-09T09:05:40.802Z,17.18
2023-05-09T09:08:11.940Z,17.21
2023-05-09T09:10:47.083Z,17.09
2023-05-09T09:13:18.065Z,17.24
2023-05-09T09:15:48.982Z,17.38
2023-05-09T09:18:23.770Z,17.64
2023-05-09T09:21:00.139Z,17.90
2023-05-09T09:23:30.463Z,18.03
2023-05-09T09:26:01.833Z,18.07
2023-05-09T09:28:31.073Z,18.17
2023-05-09T09:31:00.483Z,18.07
2023-05-09T09:33:29.664Z,18.12
2023-05-09T09:35:59.818Z,18.34
2023-05-09T09:38:30.953Z,18.56
2023-05-09T09:41:00.146Z,18.81
2023-05-09T09:43:30.962Z,18.98
2023-05-09T09:46:04.466Z,18.89
2023-05-09T09:48:35.671Z,18.69
2023-05-09T09:51:10.746Z,18.83
2023-05-09T09:53:43.563Z,19.03
2023-05-09T09:56:13.047Z,19.40
2023-05-09T09:58:42.104Z,19.50
2023-05-09T10:01:14.172Z,19.56
2023-05-09T10:03:48.175Z,19.65
2023-05-09T10:06:17.490Z,19.70
2023-05-09T10:08:47.378Z,19.72
2023-05-09T10:11:16.616Z,19.75
2023-05-09T10:13:46.448Z,19.85
2023-05-09T10:16:16.050Z,19.91
2023-05-09T10:18:45.592Z,20.08
2023-05-09T10:21:15.910Z,20.36
2023-05-09T10:23:47.952Z,20.12
2023-05-09T10:26:27.127Z,19.72
2023-05-09T10:28:57.914Z,19.58
2023-05-09T10:31:28.932Z,19.59
2023-05-09T10:34:02.078Z,19.84
2023-05-09T10:36:31.453Z,20.13
2023-05-09T10:39:01.422Z,20.19
2023-05-09T10:41:31.424Z,19.87
2023-05-09T10:44:00.678Z,19.73
2023-05-09T10:46:29.954Z,19.75
2023-05-09T10:48:59.325Z,19.91
2023-05-09T10:51:29.089Z,19.99
2023-05-09T10:53:58.179Z,20.15
2023-05-09T10:56:32.371Z,20.40
2023-05-09T10:59:02.179Z,20.76
2023-05-09T11:01:39.634Z,20.93
2023-05-09T11:04:14.572Z,21.13
2023-05-09T11:06:51.235Z,21.38
2023-05-09T11:09:35.553Z,21.36
2023-05-09T11:12:04.589Z,21.22
2023-05-09T11:14:45.890Z,21.16
2023-05-09T11:17:28.386Z,21.22
2023-05-09T11:20:03.800Z,21.39
2023-05-09T11:22:42.724Z,21.58
2023-05-09T11:25:13.922Z,21.82
2023-05-09T11:27:43.507Z,22.09
2023-05-09T11:30:17.822Z,22.20
2023-05-09T11:32:51.859Z,21.73
2023-05-09T11:35:22.854Z,21.32
2023-05-09T11:37:55.167Z,21.26
2023-05-09T11:40:24.471Z,21.40
2023-05-09T11:42:57.795Z,21.39
2023-05-09T11:45:32.605Z,21.32
2023-05-09T11:48:02.199Z,21.24
2023-05-09T11:50:31.423Z,21.54
2023-05-09T11:53:00.504Z,21.77
2023-05-09T11:55:32.783Z,22.09
2023-05-09T11:58:01.956Z,22.15
2023-05-09T12:00:31.902Z,22.05
2023-05-09T12:03:01.142Z,21.82
2023-05-09T12:05:30.656Z,21.58
2023-05-09T12:08:04.658Z,21.33
2023-05-09T12:10:37.668Z,21.26
2023-05-09T12:13:06.830Z,21.09
2023-05-09T12:15:38.149Z,20.95
2023-05-09T12:18:08.687Z,20.92
2023-05-09T12:20:44.715Z,20.85
2023-05-09T12:23:15.019Z,20.69
2023-05-09T12:25:55.694Z,20.57
2023-05-09T12:28:26.406Z,20.56
2023-05-09T12:30:56.383Z,20.57
2023-05-09T12:33:26.554Z,20.65
2023-05-09T12:36:03.569Z,20.87
2023-05-09T12:38:33.141Z,20.73
2023-05-09T12:41:13.018Z,20.65
2023-05-09T12:43:52.543Z,20.50
2023-05-09T12:46:22.081Z,20.29
2023-05-09T12:48:51.798Z,20.07
2023-05-09T12:51:22.007Z,20.11
2023-05-09T12:53:51.200Z,20.19
2023-05-09T12:56:22.965Z,20.82
2023-05-09T12:58:53.832Z,20.96
2023-05-09T13:01:31.863Z,20.64
2023-05-09T13:04:05.938Z,20.68
2023-05-09T13:06:36.342Z,24.37
2023-05-09T13:09:09.473Z,24.93
2023-05-09T13:11:38.513Z,25.35
2023-05-09T13:14:08.452Z,24.35
2023-05-09T13:16:37.730Z,23.45
2023-05-09T13:19:07.294Z,22.34
2023-05-09T13:21:37.030Z,22.63
2023-05-09T13:24:06.492Z,27.11
2023-05-09T13:26:35.565Z,30.45
2023-05-09T13:29:04.650Z,30.92
2023-05-09T13:31:33.790Z,31.71
2023-05-09T13:34:02.921Z,30.30
2023-05-09T13:36:32.600Z,29.11
2023-05-09T13:39:01.640Z,28.05
2023-05-09T13:41:32.183Z,27.89
2023-05-09T13:44:01.298Z,28.16
2023-05-09T13:46:30.484Z,26.74
2023-05-09T13:48:59.533Z,25.97
2023-05-09T13:51:29.176Z,24.88
2023-05-09T13:53:58.236Z,23.72
2023-05-09T13:56:27.421Z,23.02
2023-05-09T13:58:56.489Z,22.47
2023-05-09T14:01:25.620Z,22.02
2023-05-09T14:03:54.789Z,21.66
2023-05-09T14:06:23.954Z,21.50
2023-05-09T14:08:53.144Z,21.42
2023-05-09T14:11:22.561Z,21.66
2023-05-09T14:13:54.505Z,22.23
2023-05-09T14:16:23.559Z,23.39
2023-05-09T14:18:52.652Z,23.23
2023-05-09T14:21:22.360Z,23.41
2023-05-09T14:23:51.610Z,23.31
2023-05-09T14:26:20.762Z,23.19
2023-05-09T14:28:49.839Z,23.37
2023-05-09T14:31:19.291Z,23.60
2023-05-09T14:33:48.372Z,23.51
2023-05-09T14:36:17.579Z,23.18
2023-05-09T14:38:47.004Z,23.08
2023-05-09T14:41:16.389Z,22.88
2023-05-09T14:43:45.759Z,22.75
2023-05-09T14:46:15.110Z,22.61
2023-05-09T14:48:44.297Z,22.72
2023-05-09T14:51:14.350Z,22.73
2023-05-09T14:53:43.676Z,22.72
2023-05-09T14:56:13.245Z,22.51
2023-05-09T14:58:42.265Z,22.25
2023-05-09T15:01:11.419Z,21.84
2023-05-09T15:03:40.964Z,21.45
2023-05-09T15:06:10.057Z,21.24
2023-05-09T15:08:39.324Z,21.16
2023-05-09T15:11:08.352Z,21.18
2023-05-09T15:13:37.522Z,21.21
2023-05-09T15:16:06.767Z,21.06
2023-05-09T15:18:36.237Z,20.90
2023-05-09T15:21:05.557Z,21.06
2023-05-09T15:23:34.681Z,21.29
2023-05-09T15:26:03.967Z,21.17
2023-05-09T15:28:33.886Z,20.75
2023-05-09T15:31:03.553Z,20.27
2023-05-09T15:33:32.967Z,20.06
2023-05-09T15:36:02.137Z,19.91
2023-05-09T15:38:31.266Z,20.05
2023-05-09T15:41:00.362Z,20.38
2023-05-09T15:43:29.444Z,20.63
2023-05-09T15:45:58.560Z,21.43
2023-05-09T15:48:27.852Z,21.38
2023-05-09T15:50:56.901Z,21.07
2023-05-09T15:53:27.629Z,20.58
2023-05-09T15:55:57.118Z,20.10
2023-05-09T15:58:26.211Z,19.95
2023-05-09T16:00:56.914Z,19.87
2023-05-09T16:03:26.458Z,21.16
2023-05-09T16:05:55.731Z,21.81
2023-05-09T16:08:24.869Z,21.15
2023-05-09T16:10:54.129Z,20.42
2023-05-09T16:13:23.858Z,19.92
2023-05-09T16:15:53.952Z,19.54
2023-05-09T16:18:23.164Z,19.20
2023-05-09T16:20:52.295Z,18.90
2023-05-09T16:23:21.662Z,18.65
2023-05-09T16:25:51.089Z,18.79
2023-05-09T16:28:23.521Z,18.73
2023-05-09T16:30:52.978Z,18.32
2023-05-09T16:33:22.037Z,17.99
2023-05-09T16:35:51.427Z,17.73
2023-05-09T16:38:20.658Z,17.54
2023-05-09T16:40:51.050Z,17.38
2023-05-09T16:43:20.253Z,17.24
2023-05-09T16:45:49.396Z,17.14
2023-05-09T16:48:18.906Z,17.10
2023-05-09T16:50:48.294Z,17.09
2023-05-09T16:53:18.953Z,17.04
2023-05-09T16:55:48.087Z,16.95
2023-05-09T16:58:17.163Z,16.84
2023-05-09T17:00:46.277Z,16.69
2023-05-09T17:03:15.436Z,16.51
2023-05-09T17:05:44.496Z,16.36
2023-05-09T17:08:13.623Z,16.19
2023-05-09T17:10:42.661Z,16.08
2023-05-09T17:13:11.904Z,15.96
2023-05-09T17:15:41.174Z,15.85
2023-05-09T17:18:10.401Z,15.75
2023-05-09T17:20:39.628Z,15.69
2023-05-09T17:23:08.752Z,15.54
2023-05-09T17:25:37.879Z,15.41
2023-05-09T17:28:07.782Z,15.27
2023-05-09T17:30:36.986Z,15.12
2023-05-09T17:33:06.089Z,15.02
2023-05-09T17:35:36.281Z,14.93
2023-05-09T17:38:05.363Z,14.83
2023-05-09T17:40:34.409Z,14.78
2023-05-09T17:43:03.526Z,14.63
2023-05-09T17:45:32.531Z,14.50
2023-05-09T17:48:02.450Z,14.35
2023-05-09T17:50:31.661Z,14.27
2023-05-09T17:53:00.747Z,14.19
2023-05-09T17:55:30.375Z,14.05
2023-05-09T17:57:59.441Z,14.00
2023-05-09T18:00:29.311Z,13.89
2023-05-09T18:03:00.719Z,13.76
2023-05-09T18:05:30.129Z,13.63
2023-05-09T18:08:01.243Z,13.49
2023-05-09T18:10:30.661Z,13.38
2023-05-09T18:12:59.770Z,13.27
2023-05-09T18:15:28.889Z,13.15
2023-05-09T18:17:59.385Z,13.07
2023-05-09T18:20:28.855Z,12.98
2023-05-09T18:22:57.955Z,12.88
2023-05-09T18:25:27.161Z,12.82
2023-05-09T18:27:56.702Z,12.75
2023-05-09T18:30:25.970Z,12.72
2023-05-09T18:33:00.454Z,12.65
2023-05-09T18:35:30.223Z,12.61
2023-05-09T18:37:59.847Z,12.53
2023-05-09T18:40:29.018Z,12.40
2023-05-09T18:42:58.144Z,12.28
2023-05-09T18:45:27.209Z,12.18
2023-05-09T18:47:56.582Z,12.13
2023-05-09T18:50:26.008Z,12.02
2023-05-09T18:52:55.391Z,11.91
2023-05-09T18:55:24.889Z,11.81
2023-05-09T18:57:54.417Z,11.77
2023-05-09T19:00:23.884Z,11.70
2023-05-09T19:02:52.992Z,11.60
2023-05-09T19:05:22.261Z,11.52
2023-05-09T19:07:51.870Z,11.44
2023-05-09T19:10:24.152Z,11.35
2023-05-09T19:12:54.030Z,11.31
2023-05-09T19:15:23.885Z,11.25
2023-05-09T19:17:58.550Z,11.22
2023-05-09T19:20:29.623Z,11.22
2023-05-09T19:22:59.382Z,11.16
2023-05-09T19:25:33.830Z,11.03
2023-05-09T19:28:03.475Z,11.03
2023-05-09T19:30:33.942Z,10.93
2023-05-09T19:33:03.557Z,10.90
2023-05-09T19:35:33.815Z,10.84
2023-05-09T19:38:05.697Z,10.79
2023-05-09T19:40:35.130Z,10.74
2023-05-09T19:43:05.248Z,10.69
2023-05-09T19:45:35.461Z,10.61
2023-05-09T19:48:05.925Z,10.59
2023-05-09T19:50:45.954Z,10.53
2023-05-09T19:53:15.741Z,10.47
2023-05-09T19:55:47.443Z,10.37
2023-05-09T19:58:17.797Z,10.34
2023-05-09T20:00:48.300Z,10.30
2023-05-09T20:03:17.585Z,10.24
2023-05-09T20:08:33.950Z,10.14
2023-05-09T20:11:03.293Z,10.06
2023-05-09T20:13:32.495Z,9.99
2023-05-09T20:16:03.190Z,9.90
2023-05-09T20:18:34.879Z,9.81
2023-05-09T20:21:07.296Z,9.70
2023-05-09T20:23:37.055Z,9.64
2023-05-09T20:26:06.565Z,9.58
2023-05-09T20:28:35.721Z,9.47
2023-05-09T20:31:04.829Z,9.41
2023-05-09T20:33:34.164Z,9.32
2023-05-09T20:36:05.096Z,9.23
2023-05-09T20:38:34.439Z,9.19
2023-05-09T20:41:04.050Z,9.15
2023-05-09T20:43:33.509Z,9.11
2023-05-09T20:46:02.735Z,9.02
2023-05-09T20:48:32.489Z,8.99
2023-05-09T20:51:01.575Z,8.90
2023-05-09T20:53:32.470Z,8.84
2023-05-09T20:56:02.132Z,8.78
2023-05-09T20:58:32.887Z,8.68
2023-05-09T21:01:02.317Z,8.57
2023-05-09T21:03:31.474Z,8.53
2023-05-09T21:06:00.754Z,8.49
2023-05-09T21:08:29.779Z,8.46
2023-05-09T21:10:58.880Z,8.43
2023-05-09T21:13:28.390Z,8.36
2023-05-09T21:15:57.645Z,8.27
2023-05-09T21:18:27.461Z,8.19
2023-05-09T21:20:56.519Z,8.15
2023-05-09T21:23:25.595Z,8.12
2023-05-09T21:25:54.611Z,8.11
2023-05-09T21:28:23.671Z,8.09
2023-05-09T21:30:53.867Z,8.13
2023-05-09T21:33:23.121Z,8.19
2023-05-09T21:35:52.073Z,8.17
2023-05-09T21:38:21.195Z,8.14
2023-05-09T21:40:51.462Z,8.19
2023-05-09T21:43:20.647Z,8.15
2023-05-09T21:45:49.647Z,8.07
2023-05-09T21:48:18.700Z,8.03
2023-05-09T21:50:47.945Z,8.02
2023-05-09T21:53:16.986Z,7.97
2023-05-09T21:55:46.294Z,7.94
2023-05-09T21:58:15.352Z,7.95
2023-05-09T22:00:44.460Z,7.98
2023-05-09T22:03:13.608Z,8.02
2023-05-09T22:05:43.177Z,8.09
2023-05-09T22:08:12.228Z,8.14
2023-05-09T22:10:41.310Z,8.16
2023-05-09T22:13:10.473Z,8.17
2023-05-09T22:15:39.594Z,8.16
2023-05-09T22:18:08.830Z,8.13
2023-05-09T22:20:37.854Z,8.12
2023-05-09T22:23:06.985Z,8.10
2023-05-09T22:25:36.061Z,8.11
2023-05-09T22:28:05.200Z,8.07
2023-05-09T22:30:34.916Z,8.09
2023-05-09T22:33:04.069Z,8.08
2023-05-09T22:35:33.144Z,8.07
2023-05-09T22:38:02.154Z,8.13
2023-05-09T22:40:31.195Z,8.19
2023-05-09T22:43:00.238Z,8.21
2023-05-09T22:45:29.485Z,8.23
2023-05-09T22:47:58.567Z,8.20
2023-05-09T22:50:27.801Z,8.21
2023-05-09T22:52:56.887Z,8.19
2023-05-09T22:55:26.020Z,8.21
2023-05-09T22:57:55.100Z,8.28
2023-05-09T23:00:24.166Z,8.27
2023-05-09T23:02:53.301Z,8.29
2023-05-09T23:05:23.488Z,8.29
2023-05-09T23:07:52.549Z,8.29
2023-05-09T23:10:21.652Z,8.29
2023-05-09T23:12:50.745Z,8.25
2023-05-09T23:15:20.008Z,8.25
2023-05-09T23:17:49.109Z,8.21
2023-05-09T23:20:18.557Z,8.20
2023-05-09T23:22:47.789Z,8.09
2023-05-09T23:25:16.851Z,8.03
2023-05-09T23:27:46.975Z,7.97
2023-05-09T23:30:16.473Z,7.99
2023-05-09T23:32:46.070Z,8.00
2023-05-09T23:35:15.516Z,8.07
2023-05-09T23:37:44.540Z,8.18
2023-05-09T23:40:14.236Z,8.27
2023-05-09T23:42:43.476Z,8.32
2023-05-09T23:45:12.903Z,8.36
2023-05-09T23:47:41.984Z,8.40
2023-05-09T23:50:12.168Z,8.41
2023-05-09T23:52:42.092Z,8.33
2023-05-09T23:55:11.592Z,8.26
2023-05-09T23:57:40.702Z,8.19
